createdAt,value
2019-03-08T00:00:16.220Z,28.80
2019-03-08T00:02:44.800Z,29.18
2019-03-08T00:05:11.485Z,25.88
2019-03-08T00:07:38.188Z,39.13
2019-03-08T00:10:05.199Z,34.48
2019-03-08T00:12:31.947Z,32.17
2019-03-08T00:14:58.548Z,35.68
2019-03-08T00:17:25.324Z,31.07
2019-03-08T00:19:52.019Z,35.40
2019-03-08T00:22:18.703Z,28.73
2019-03-08T00:24:46.627Z,25.23
2019-03-08T00:27:13.316Z,29.95
2019-03-08T00:29:40.012Z,32.95
2019-03-08T00:32:07.779Z,21.97
2019-03-08T00:34:34.558Z,32.67
2019-03-08T00:37:01.161Z,34.00
2019-03-08T00:39:27.847Z,26.10
2019-03-08T00:41:54.733Z,33.92
2019-03-08T00:44:21.435Z,27.45
2019-03-08T00:46:48.055Z,28.00
2019-03-08T00:49:14.823Z,31.00
2019-03-08T00:51:41.417Z,26.12
2019-03-08T00:54:09.065Z,25.55
2019-03-08T00:56:35.815Z,32.55
2019-03-08T00:59:02.721Z,25.92
2019-03-08T01:01:29.427Z,35.25
2019-03-08T01:03:56.101Z,25.52
2019-03-08T01:06:22.823Z,31.27
2019-03-08T01:08:49.525Z,29.60
2019-03-08T01:11:16.225Z,24.20
2019-03-08T01:13:42.818Z,27.00
2019-03-08T01:16:09.798Z,30.02
2019-03-08T01:18:37.496Z,24.43
2019-03-08T01:21:04.342Z,26.97
2019-03-08T01:23:32.031Z,31.45
2019-03-08T01:25:58.734Z,24.45
2019-03-08T01:28:25.533Z,29.80
2019-03-08T01:30:52.182Z,26.85
2019-03-08T01:33:19.277Z,30.17
2019-03-08T01:35:46.171Z,24.12
2019-03-08T01:38:12.768Z,26.55
2019-03-08T01:40:39.454Z,32.08
2019-03-08T01:43:06.044Z,28.05
2019-03-08T01:45:32.644Z,35.17
2019-03-08T01:47:59.347Z,25.70
2019-03-08T01:50:26.263Z,33.80
2019-03-08T01:52:52.969Z,36.20
2019-03-08T01:55:19.732Z,30.40
2019-03-08T01:57:46.324Z,26.50
2019-03-08T02:00:15.394Z,22.77
2019-03-08T02:02:42.097Z,30.48
2019-03-08T02:05:10.038Z,23.42
2019-03-08T02:07:37.747Z,25.88
2019-03-08T02:10:10.153Z,32.75
2019-03-08T02:12:36.774Z,30.55
2019-03-08T02:15:05.861Z,26.23
2019-03-08T02:17:32.555Z,32.80
2019-03-08T02:19:59.245Z,31.60
2019-03-08T02:22:26.140Z,29.30
2019-03-08T02:24:52.847Z,24.18
2019-03-08T02:27:19.508Z,30.40
2019-03-08T02:29:46.157Z,30.75
2019-03-08T02:32:12.849Z,28.25
2019-03-08T02:34:39.666Z,21.30
2019-03-08T02:37:06.366Z,34.83
2019-03-08T02:39:33.356Z,24.27
2019-03-08T02:41:59.999Z,30.60
2019-03-08T02:44:26.645Z,25.45
2019-03-08T02:46:53.354Z,32.98
2019-03-08T02:49:19.971Z,31.30
2019-03-08T02:51:46.632Z,28.02
2019-03-08T02:54:13.325Z,32.08
2019-03-08T02:56:41.064Z,31.52
2019-03-08T02:59:07.782Z,24.43
2019-03-08T03:01:34.533Z,28.70
2019-03-08T03:04:01.123Z,28.25
2019-03-08T03:06:27.769Z,30.32
2019-03-08T03:08:54.502Z,30.60
2019-03-08T03:11:21.090Z,24.27
2019-03-08T03:13:47.879Z,28.77
2019-03-08T03:16:14.545Z,29.32
2019-03-08T03:18:41.145Z,27.20
2019-03-08T03:21:07.745Z,34.20
2019-03-08T03:23:34.457Z,25.45
2019-03-08T03:26:01.087Z,27.15
2019-03-08T03:28:27.703Z,28.12
2019-03-08T03:30:54.808Z,28.90
2019-03-08T03:33:21.463Z,25.50
2019-03-08T03:35:48.155Z,32.42
2019-03-08T03:38:14.841Z,30.00
2019-03-08T03:40:41.502Z,25.72
2019-03-08T03:43:08.119Z,27.62
2019-03-08T03:45:34.844Z,30.27
2019-03-08T03:48:01.652Z,25.77
2019-03-08T03:50:28.308Z,33.63
2019-03-08T03:52:54.998Z,31.80
2019-03-08T03:55:21.644Z,33.38
2019-03-08T03:57:48.892Z,28.73
2019-03-08T04:00:18.404Z,33.18
2019-03-08T04:02:45.013Z,32.03
2019-03-08T04:05:11.970Z,42.00
2019-03-08T04:07:38.644Z,31.82
2019-03-08T04:10:08.679Z,28.17
2019-03-08T04:12:36.393Z,23.75
2019-03-08T04:15:06.699Z,23.12
2019-03-08T04:17:33.502Z,27.00
2019-03-08T04:20:00.511Z,32.73
2019-03-08T04:22:27.229Z,29.45
2019-03-08T04:24:53.857Z,26.75
2019-03-08T04:27:20.539Z,28.05
2019-03-08T04:29:47.200Z,30.85
2019-03-08T04:32:13.889Z,22.90
2019-03-08T04:34:40.656Z,29.98
2019-03-08T04:37:07.364Z,32.35
2019-03-08T04:39:33.971Z,29.70
2019-03-08T04:42:00.627Z,32.05
2019-03-08T04:44:27.350Z,30.85
2019-03-08T04:46:53.944Z,32.75
2019-03-08T04:49:20.544Z,24.52
2019-03-08T04:51:47.210Z,29.77
2019-03-08T04:54:13.808Z,32.28
2019-03-08T04:56:40.600Z,21.33
2019-03-08T04:59:07.353Z,25.50
2019-03-08T05:01:34.010Z,32.80
2019-03-08T05:04:00.795Z,24.63
2019-03-08T05:06:27.633Z,29.23
2019-03-08T05:08:54.434Z,27.93
2019-03-08T05:11:21.143Z,27.37
2019-03-08T05:13:48.063Z,27.60
2019-03-08T05:16:14.785Z,24.23
2019-03-08T05:18:41.412Z,23.70
2019-03-08T05:21:08.106Z,27.82
2019-03-08T05:23:34.700Z,29.95
2019-03-08T05:26:01.377Z,20.43
2019-03-08T05:28:28.080Z,29.15
2019-03-08T05:30:55.125Z,25.27
2019-03-08T05:33:21.771Z,18.95
2019-03-08T05:35:48.523Z,25.40
2019-03-08T05:38:15.129Z,19.27
2019-03-08T05:40:41.816Z,25.02
2019-03-08T05:43:08.479Z,20.35
2019-03-08T05:45:36.127Z,20.05
2019-03-08T05:48:02.838Z,27.42
2019-03-08T05:50:29.553Z,25.27
2019-03-08T05:52:56.359Z,21.45
2019-03-08T05:55:23.061Z,21.87
2019-03-08T05:57:49.779Z,23.05
2019-03-08T06:00:18.387Z,25.65
2019-03-08T06:02:45.109Z,23.75
2019-03-08T06:05:11.854Z,19.85
2019-03-08T06:07:38.624Z,22.05
2019-03-08T06:10:28.535Z,23.07
2019-03-08T06:12:55.990Z,27.05
2019-03-08T06:15:22.655Z,21.25
2019-03-08T06:17:49.252Z,27.65
2019-03-08T06:20:16.040Z,22.05
2019-03-08T06:22:42.741Z,30.55
2019-03-08T06:25:09.428Z,26.23
2019-03-08T06:27:36.116Z,23.85
2019-03-08T06:30:04.951Z,20.70
2019-03-08T06:32:31.551Z,19.02
2019-03-08T06:34:58.231Z,18.48
2019-03-08T06:37:25.324Z,20.82
2019-03-08T06:39:52.013Z,20.97
2019-03-08T06:42:18.739Z,19.62
2019-03-08T06:44:45.434Z,26.93
2019-03-08T06:47:12.052Z,23.87
2019-03-08T06:49:38.692Z,19.57
2019-03-08T06:52:05.404Z,16.60
2019-03-08T06:54:32.027Z,18.52
2019-03-08T06:56:58.637Z,23.60
2019-03-08T06:59:27.142Z,13.05
2019-03-08T07:01:53.832Z,16.12
2019-03-08T07:04:20.459Z,18.02
2019-03-08T07:06:47.319Z,17.10
2019-03-08T07:09:13.948Z,18.23
2019-03-08T07:11:40.605Z,17.42
2019-03-08T07:14:07.584Z,20.75
2019-03-08T07:16:34.279Z,14.45
2019-03-08T07:19:00.976Z,15.72
2019-03-08T07:21:32.328Z,15.60
2019-03-08T07:24:03.698Z,18.05
2019-03-08T07:26:47.353Z,15.20
2019-03-08T07:29:18.799Z,15.80
2019-03-08T07:31:59.037Z,11.00
2019-03-08T07:34:36.427Z,10.35
2019-03-08T07:37:07.452Z,13.65
2019-03-08T07:39:38.928Z,10.80
2019-03-08T07:42:09.899Z,13.30
2019-03-08T07:44:55.163Z,8.50
2019-03-08T07:47:29.684Z,13.90
2019-03-08T07:49:58.222Z,14.33
2019-03-08T07:52:29.450Z,13.85
2019-03-08T07:54:58.035Z,16.23
2019-03-08T07:57:38.521Z,11.63
2019-03-08T08:00:29.706Z,5.97
2019-03-08T08:03:04.387Z,8.43
2019-03-08T08:05:33.855Z,10.55
2019-03-08T08:08:18.609Z,15.20
2019-03-08T08:10:47.104Z,11.70
2019-03-08T08:13:15.729Z,8.70
2019-03-08T08:15:45.494Z,10.45
2019-03-08T08:18:16.647Z,8.30
2019-03-08T08:20:54.340Z,10.05
2019-03-08T08:23:22.766Z,6.10
2019-03-08T08:26:03.448Z,10.75
2019-03-08T08:28:32.017Z,10.13
2019-03-08T08:31:06.473Z,5.83
2019-03-08T08:33:50.116Z,6.20
2019-03-08T08:36:18.518Z,7.72
2019-03-08T08:38:47.004Z,5.50
2019-03-08T08:41:24.807Z,5.85
2019-03-08T08:44:08.637Z,15.20
2019-03-08T08:46:46.446Z,14.47
2019-03-08T08:49:27.314Z,13.05
2019-03-08T08:52:12.870Z,11.22
2019-03-08T08:54:44.640Z,8.98
2019-03-08T08:57:16.903Z,10.93
2019-03-08T08:59:45.628Z,10.00
2019-03-08T09:02:29.190Z,10.43
2019-03-08T09:05:01.292Z,9.90
2019-03-08T09:07:31.450Z,12.47
2019-03-08T09:09:59.870Z,12.03
2019-03-08T09:12:28.359Z,14.40
2019-03-08T09:14:59.926Z,11.03
2019-03-08T09:17:28.439Z,7.37
2019-03-08T09:19:56.982Z,9.90
2019-03-08T09:22:37.815Z,9.33
2019-03-08T09:25:08.225Z,11.70
2019-03-08T09:27:36.714Z,10.95
2019-03-08T09:30:14.519Z,7.40
2019-03-08T09:32:58.953Z,11.88
2019-03-08T09:35:31.847Z,9.73
2019-03-08T09:38:03.379Z,10.80
2019-03-08T09:40:37.827Z,10.95
2019-03-08T09:43:15.258Z,8.13
2019-03-08T09:45:52.638Z,12.68
2019-03-08T09:48:21.336Z,11.33
2019-03-08T09:50:49.847Z,11.63
2019-03-08T09:53:18.349Z,9.53
2019-03-08T09:55:46.773Z,5.35
2019-03-08T09:58:17.760Z,10.43
2019-03-08T10:01:04.392Z,11.22
2019-03-08T10:03:32.954Z,10.75
2019-03-08T10:06:05.327Z,6.85
2019-03-08T10:08:37.639Z,15.30
2019-03-08T10:11:15.288Z,13.13
2019-03-08T10:13:43.779Z,10.53
2019-03-08T10:16:29.056Z,10.58
2019-03-08T10:19:09.778Z,10.95
2019-03-08T10:21:41.055Z,9.65
2019-03-08T10:24:12.289Z,9.20
2019-03-08T10:26:40.703Z,9.88
2019-03-08T10:29:09.207Z,12.50
2019-03-08T10:31:46.797Z,9.65
2019-03-08T10:34:27.725Z,10.38
2019-03-08T10:36:59.124Z,8.10
2019-03-08T10:39:27.632Z,6.50
2019-03-08T10:42:13.076Z,10.93
2019-03-08T10:44:50.750Z,9.60
2019-03-08T10:47:25.581Z,7.72
2019-03-08T10:49:55.530Z,7.03
2019-03-08T10:52:30.090Z,8.18
2019-03-08T10:55:07.658Z,9.58
2019-03-08T10:57:38.978Z,9.90
2019-03-08T11:00:26.384Z,8.53
2019-03-08T11:03:12.888Z,6.60
2019-03-08T11:05:44.185Z,11.43
2019-03-08T11:08:12.825Z,9.40
2019-03-08T11:11:06.161Z,7.28
2019-03-08T11:13:45.323Z,7.15
2019-03-08T11:16:16.799Z,8.45
2019-03-08T11:19:08.427Z,12.15
2019-03-08T11:21:34.971Z,10.05
2019-03-08T11:24:09.593Z,6.72
2019-03-08T11:26:42.334Z,7.22
2019-03-08T11:29:16.751Z,6.65
2019-03-08T11:31:48.307Z,5.67
2019-03-08T11:34:19.945Z,8.08
2019-03-08T11:36:48.438Z,7.00
2019-03-08T11:39:18.381Z,8.20
2019-03-08T11:41:52.547Z,5.37
2019-03-08T11:44:38.042Z,5.42
2019-03-08T11:47:06.532Z,5.83
2019-03-08T11:49:43.812Z,7.12
2019-03-08T11:52:46.069Z,4.78
2019-03-08T11:55:22.390Z,5.58
2019-03-08T11:57:50.899Z,6.40
2019-03-08T12:00:19.304Z,9.93
2019-03-08T12:02:47.882Z,6.33
2019-03-08T12:05:16.484Z,3.60
2019-03-08T12:07:54.386Z,4.97
2019-03-08T12:10:28.918Z,7.28
2019-03-08T12:12:57.442Z,3.05
2019-03-08T12:15:28.601Z,5.22
2019-03-08T12:18:09.519Z,4.47
2019-03-08T12:20:43.984Z,6.95
2019-03-08T12:23:18.507Z,6.40
2019-03-08T12:26:03.568Z,9.38
2019-03-08T12:28:34.763Z,4.33
2019-03-08T12:31:19.897Z,4.30
2019-03-08T12:33:51.236Z,6.30
2019-03-08T12:36:19.857Z,4.60
2019-03-08T12:38:54.127Z,6.87
2019-03-08T12:41:31.548Z,6.47
2019-03-08T12:44:16.517Z,10.23
2019-03-08T12:46:45.034Z,7.15
2019-03-08T12:49:13.458Z,6.65
2019-03-08T12:51:44.687Z,4.60
2019-03-08T12:54:13.158Z,5.03
2019-03-08T12:56:53.906Z,8.75
2019-03-08T12:59:22.351Z,4.20
2019-03-08T13:01:50.962Z,2.98
2019-03-08T13:04:22.042Z,5.05
2019-03-08T13:07:02.784Z,6.77
2019-03-08T13:09:31.340Z,7.12
2019-03-08T13:11:58.030Z,6.25
2019-03-08T13:14:24.676Z,3.80
2019-03-08T13:16:51.390Z,8.65
2019-03-08T13:19:17.999Z,4.15
2019-03-08T13:21:44.671Z,3.70
2019-03-08T13:24:11.624Z,5.65
2019-03-08T13:26:38.335Z,4.45
2019-03-08T13:29:05.045Z,3.12
2019-03-08T13:31:31.753Z,3.72
2019-03-08T13:33:58.371Z,5.28
2019-03-08T13:36:25.031Z,5.35
2019-03-08T13:38:51.701Z,4.83
2019-03-08T13:41:18.657Z,4.60
2019-03-08T13:43:45.399Z,5.50
2019-03-08T13:46:12.118Z,6.50
2019-03-08T13:48:38.707Z,7.70
2019-03-08T13:51:05.365Z,3.92
2019-03-08T13:53:32.059Z,5.42
2019-03-08T13:55:58.779Z,4.30
2019-03-08T13:58:25.917Z,5.72
2019-03-08T14:00:52.613Z,4.20
2019-03-08T14:03:19.198Z,9.15
2019-03-08T14:05:45.895Z,3.08
2019-03-08T14:08:13.567Z,6.95
2019-03-08T14:10:40.215Z,4.08
2019-03-08T14:13:07.018Z,4.83
2019-03-08T14:15:33.936Z,5.53
2019-03-08T14:18:00.551Z,2.77
2019-03-08T14:20:28.025Z,5.53
2019-03-08T14:22:54.680Z,4.83
2019-03-08T14:25:21.389Z,3.98
2019-03-08T14:27:48.100Z,5.10
2019-03-08T14:30:39.989Z,3.95
2019-03-08T14:33:06.583Z,8.35
2019-03-08T14:35:33.258Z,3.55
2019-03-08T14:37:59.936Z,5.55
2019-03-08T14:40:46.630Z,6.72
2019-03-08T14:43:16.983Z,6.08
2019-03-08T14:46:03.936Z,2.50
2019-03-08T14:48:30.531Z,5.15
2019-03-08T14:50:57.483Z,5.95
2019-03-08T14:53:24.173Z,5.12
2019-03-08T14:55:50.809Z,4.05
2019-03-08T14:58:17.436Z,7.00
2019-03-08T15:00:44.196Z,6.92
2019-03-08T15:03:10.787Z,5.10
2019-03-08T15:05:37.487Z,4.45
2019-03-08T15:08:04.151Z,3.80
2019-03-08T15:10:39.128Z,5.83
2019-03-08T15:12:59.326Z,6.92
2019-03-08T15:15:26.110Z,3.65
2019-03-08T15:17:53.647Z,6.70
2019-03-08T15:20:21.466Z,6.22
2019-03-08T15:22:48.453Z,2.55
2019-03-08T15:25:15.245Z,4.00
2019-03-08T15:27:41.925Z,3.42
2019-03-08T15:30:11.189Z,5.62
2019-03-08T15:32:37.895Z,6.22
2019-03-08T15:35:06.813Z,6.60
2019-03-08T15:37:33.656Z,4.42
2019-03-08T15:40:00.353Z,4.53
2019-03-08T15:42:27.045Z,7.78
2019-03-08T15:44:54.725Z,5.78
2019-03-08T15:47:23.818Z,4.95
2019-03-08T15:49:49.973Z,3.87
2019-03-08T15:52:16.946Z,6.30
2019-03-08T15:54:43.605Z,5.95
2019-03-08T15:57:10.231Z,2.80
2019-03-08T15:59:36.950Z,7.03
2019-03-08T16:02:06.241Z,7.97
2019-03-08T16:04:32.287Z,7.10
2019-03-08T16:06:58.959Z,9.10
2019-03-08T16:09:25.602Z,5.00
2019-03-08T16:11:52.248Z,5.00
2019-03-08T16:14:18.971Z,8.48
2019-03-08T16:16:45.693Z,10.68
2019-03-08T16:19:12.355Z,12.98
2019-03-08T16:21:39.091Z,6.58
2019-03-08T16:24:05.732Z,8.08
2019-03-08T16:26:32.363Z,5.55
2019-03-08T16:28:59.034Z,3.33
2019-03-08T16:31:33.234Z,3.12
2019-03-08T16:34:01.706Z,4.45
2019-03-08T16:36:39.635Z,10.50
2019-03-08T16:39:09.749Z,5.83
2019-03-08T16:41:46.238Z,7.53
2019-03-08T16:44:17.525Z,3.65
2019-03-08T16:46:51.912Z,2.37
2019-03-08T16:49:22.939Z,6.30
2019-03-08T16:51:57.433Z,3.92
2019-03-08T16:54:42.454Z,3.90
2019-03-08T16:57:19.873Z,14.05
2019-03-08T16:59:48.383Z,7.87
2019-03-08T17:02:19.784Z,9.78
2019-03-08T17:05:05.393Z,6.78
2019-03-08T17:07:36.681Z,6.87
2019-03-08T17:10:09.066Z,10.58
2019-03-08T17:12:43.389Z,4.53
2019-03-08T17:15:11.894Z,6.65
2019-03-08T17:17:40.461Z,7.05
2019-03-08T17:20:22.196Z,6.50
2019-03-08T17:22:53.406Z,3.52
2019-03-08T17:25:23.639Z,4.55
2019-03-08T17:27:52.315Z,8.93
2019-03-08T17:30:27.940Z,6.03
2019-03-08T17:33:13.128Z,8.00
2019-03-08T17:35:41.690Z,6.92
2019-03-08T17:38:13.131Z,5.70
2019-03-08T17:40:58.191Z,5.70
2019-03-08T17:43:27.750Z,8.58
2019-03-08T17:45:59.057Z,9.15
2019-03-08T17:48:36.356Z,10.58
2019-03-08T17:51:04.925Z,8.43
2019-03-08T17:53:39.510Z,10.28
2019-03-08T17:56:08.051Z,14.87
2019-03-08T17:58:51.545Z,10.20
2019-03-08T18:01:22.857Z,14.13
2019-03-08T18:03:57.373Z,15.08
2019-03-08T18:06:34.783Z,12.98
2019-03-08T18:09:06.064Z,8.58
2019-03-08T18:11:39.073Z,11.50
2019-03-08T18:14:07.568Z,10.85
2019-03-08T18:16:41.917Z,13.72
2019-03-08T18:19:16.453Z,12.82
2019-03-08T18:21:44.955Z,11.30
2019-03-08T18:24:23.544Z,10.15
2019-03-08T18:26:52.869Z,9.40
2019-03-08T18:29:21.398Z,15.60
2019-03-08T18:32:01.987Z,12.35
2019-03-08T18:34:39.569Z,14.28
2019-03-08T18:37:24.994Z,11.22
2019-03-08T18:39:59.352Z,13.95
2019-03-08T18:42:29.271Z,12.45
2019-03-08T18:45:03.397Z,15.30
2019-03-08T18:47:48.483Z,23.98
2019-03-08T18:50:17.030Z,22.80
2019-03-08T18:52:48.385Z,20.48
2019-03-08T18:55:26.971Z,27.62
2019-03-08T18:58:04.468Z,36.30
2019-03-08T19:00:38.759Z,29.10
2019-03-08T19:03:10.100Z,21.82
2019-03-08T19:05:41.734Z,9.23
2019-03-08T19:08:16.437Z,29.10
2019-03-08T19:10:44.966Z,33.98
2019-03-08T19:13:13.465Z,33.63
2019-03-08T19:15:57.060Z,24.85
2019-03-08T19:18:31.454Z,26.42
2019-03-08T19:21:05.711Z,34.80
2019-03-08T19:23:51.043Z,28.55
2019-03-08T19:26:19.755Z,27.42
2019-03-08T19:28:48.277Z,28.45
2019-03-08T19:31:19.785Z,24.63
2019-03-08T19:34:04.817Z,22.87
2019-03-08T19:36:39.191Z,27.80
2019-03-08T19:39:24.291Z,24.32
2019-03-08T19:42:07.884Z,27.55
2019-03-08T19:44:36.309Z,23.77
2019-03-08T19:47:10.657Z,23.27
2019-03-08T19:49:39.146Z,20.20
2019-03-08T19:52:19.393Z,19.95
2019-03-08T19:54:50.662Z,25.62
2019-03-08T19:57:21.875Z,21.50
2019-03-08T19:59:56.276Z,24.40
2019-03-08T20:02:27.584Z,22.07
2019-03-08T20:05:02.166Z,21.57
2019-03-08T20:07:36.608Z,27.35
2019-03-08T20:10:08.264Z,20.37
2019-03-08T20:12:36.771Z,24.20
2019-03-08T20:15:08.895Z,23.05
2019-03-08T20:17:49.313Z,19.27
2019-03-08T20:20:23.657Z,22.82
2019-03-08T20:22:55.256Z,19.52
2019-03-08T20:25:35.858Z,22.70
2019-03-08T20:28:07.101Z,24.23
2019-03-08T20:30:41.542Z,16.80
2019-03-08T20:33:26.852Z,17.67
2019-03-08T20:36:10.717Z,20.65
2019-03-08T20:38:48.694Z,22.40
2019-03-08T20:41:35.756Z,22.87
2019-03-08T20:44:20.850Z,24.23
2019-03-08T20:46:55.127Z,22.70
2019-03-08T20:49:21.822Z,22.98
2019-03-08T20:51:48.540Z,26.93
2019-03-08T20:54:15.268Z,24.02
2019-03-08T20:56:42.274Z,21.23
2019-03-08T20:59:08.935Z,20.77
2019-03-08T21:01:35.728Z,24.37
2019-03-08T21:04:02.424Z,22.07
2019-03-08T21:06:29.259Z,26.48
2019-03-08T21:08:57.353Z,27.20
2019-03-08T21:11:24.654Z,26.15
2019-03-08T21:13:52.119Z,25.50
2019-03-08T21:16:20.471Z,30.45
2019-03-08T21:18:47.285Z,36.33
2019-03-08T21:21:14.005Z,34.15
2019-03-08T21:23:40.785Z,32.78
2019-03-08T21:26:07.402Z,30.17
2019-03-08T21:28:34.183Z,31.82
2019-03-08T21:31:00.834Z,31.17
2019-03-08T21:33:27.552Z,32.48
2019-03-08T21:35:55.181Z,30.62
2019-03-08T21:38:22.031Z,29.75
2019-03-08T21:40:48.645Z,35.10
2019-03-08T21:43:15.303Z,36.35
2019-03-08T21:45:42.111Z,32.33
2019-03-08T21:48:08.747Z,35.63
2019-03-08T21:50:35.374Z,39.38
2019-03-08T21:53:02.063Z,38.40
2019-03-08T21:55:28.665Z,43.90
2019-03-08T21:57:55.312Z,43.87
2019-03-08T22:00:25.941Z,41.45
2019-03-08T22:02:52.581Z,42.50
2019-03-08T22:05:23.802Z,46.28
2019-03-08T22:07:50.533Z,51.13
2019-03-08T22:10:21.799Z,46.37
2019-03-08T22:12:48.506Z,45.67
2019-03-08T22:15:15.236Z,54.98
2019-03-08T22:17:41.859Z,40.45
2019-03-08T22:20:08.657Z,47.75
2019-03-08T22:22:35.341Z,50.35
2019-03-08T22:25:02.345Z,40.28
2019-03-08T22:27:29.044Z,47.75
2019-03-08T22:29:56.094Z,43.30
2019-03-08T22:32:22.705Z,42.40
2019-03-08T22:34:49.366Z,46.08
2019-03-08T22:37:17.131Z,38.28
2019-03-08T22:39:43.778Z,40.33
2019-03-08T22:42:10.521Z,41.85
2019-03-08T22:44:37.321Z,45.43
2019-03-08T22:47:03.970Z,43.10
2019-03-08T22:49:30.624Z,42.65
2019-03-08T22:51:57.357Z,41.02
2019-03-08T22:54:23.961Z,39.50
2019-03-08T22:56:50.616Z,40.70
2019-03-08T22:59:17.287Z,42.30
2019-03-08T23:01:47.034Z,39.80
2019-03-08T23:04:13.657Z,44.42
2019-03-08T23:06:40.381Z,42.75
2019-03-08T23:09:09.688Z,38.33
2019-03-08T23:11:38.136Z,38.40
2019-03-08T23:14:04.856Z,39.00
2019-03-08T23:16:31.499Z,40.30
2019-03-08T23:18:58.123Z,40.63
2019-03-08T23:21:25.895Z,35.52
2019-03-08T23:23:52.503Z,34.30
2019-03-08T23:26:19.224Z,41.92
2019-03-08T23:28:50.797Z,39.95
2019-03-08T23:31:31.400Z,38.23
2019-03-08T23:33:58.133Z,37.03
2019-03-08T23:36:24.853Z,37.45
2019-03-08T23:38:51.549Z,38.25
2019-03-08T23:41:18.657Z,43.85
2019-03-08T23:43:46.370Z,41.45
2019-03-08T23:46:13.076Z,35.65
2019-03-08T23:48:39.745Z,42.62
2019-03-08T23:51:06.441Z,38.35
2019-03-08T23:53:33.151Z,35.13
2019-03-08T23:55:59.879Z,33.20
2019-03-08T23:58:26.481Z,39.58
